K6G0 weather

CLOSED Athelone Williams Memorial Airport
Davison, Michigan, United States

Public forecast

Using degrees Fahrenheit for public forecast. Weather courtesy of forecast.io.

METAR (pilot weather report)

Closest report is Bishop International Airport, 10.1 nm (18.8 km) WSW. Retrieved 2019/04/21 09:53 UTC (44 minutes ago):

KFNT 210953Z 27003KT 9SM BKN100 03/02 A2992 RMK AO2 SLP138 T00280022

TAF (pilot weather forecast)

Closest forecast is Bishop International Airport, 10.1 nm (18.8 km) WSW. Retrieved 2019/04/21 06:30 UTC (4 hours ago):

TAF KFNT 210529Z 2106/2206 32005KT 5SM BR OVC009 FM211000 VRB03KT P6SM SCT012 FM211400 28004KT P6SM SCT100